createdAt,value
2018-04-14T00:01:17.740Z,18.73
2018-04-14T00:03:45.316Z,13.40
2018-04-14T00:06:12.872Z,14.40
2018-04-14T00:08:40.434Z,11.80
2018-04-14T00:11:08.744Z,12.70
2018-04-14T00:13:36.315Z,15.90
2018-04-14T00:16:03.867Z,15.20
2018-04-14T00:18:32.210Z,16.43
2018-04-14T00:20:59.761Z,11.30
2018-04-14T00:23:27.330Z,11.80
2018-04-14T00:25:54.888Z,14.73
2018-04-14T00:28:22.453Z,20.43
2018-04-14T00:30:49.999Z,18.97
2018-04-14T00:33:17.600Z,10.60
2018-04-14T00:35:45.150Z,13.43
2018-04-14T00:38:13.475Z,9.47
2018-04-14T00:40:41.023Z,15.37
2018-04-14T00:43:09.355Z,11.30
2018-04-14T00:45:37.667Z,9.37
2018-04-14T00:48:05.219Z,7.83
2018-04-14T00:50:32.778Z,7.97
2018-04-14T00:53:12.192Z,9.73
2018-04-14T00:55:40.503Z,8.47
2018-04-14T00:58:08.052Z,9.30
2018-04-14T01:00:36.467Z,13.43
2018-04-14T01:03:04.026Z,9.83
2018-04-14T01:05:31.586Z,9.13
2018-04-14T01:07:59.903Z,11.13
2018-04-14T01:10:27.476Z,11.37
2018-04-14T01:12:55.028Z,11.80
2018-04-14T01:15:22.598Z,11.30
2018-04-14T01:17:50.920Z,12.83
2018-04-14T01:20:18.491Z,11.30
2018-04-14T01:22:46.047Z,12.60
2018-04-14T01:25:13.631Z,11.63
2018-04-14T01:27:41.191Z,16.93
2018-04-14T01:30:08.766Z,15.60
2018-04-14T01:32:36.319Z,14.23
2018-04-14T01:35:03.895Z,16.80
2018-04-14T01:37:31.450Z,19.43
2018-04-14T01:39:59.850Z,23.87
2018-04-14T01:42:27.405Z,20.00
2018-04-14T01:44:55.732Z,25.90
2018-04-14T01:47:23.312Z,25.70
2018-04-14T01:49:50.859Z,24.93
2018-04-14T01:52:18.431Z,26.53
2018-04-14T01:54:45.990Z,32.73
2018-04-14T01:57:14.331Z,30.43
2018-04-14T01:59:41.884Z,28.20
2018-04-14T02:02:09.459Z,30.27
2018-04-14T02:04:37.007Z,29.40
2018-04-14T02:07:04.580Z,33.47
2018-04-14T02:09:32.140Z,32.50
2018-04-14T02:12:00.483Z,31.87
2018-04-14T02:14:28.047Z,36.73
2018-04-14T02:16:55.621Z,35.50
2018-04-14T02:19:23.175Z,30.87
2018-04-14T02:21:50.756Z,35.97
2018-04-14T02:24:18.310Z,33.57
2018-04-14T02:26:45.884Z,35.23
2018-04-14T02:29:13.439Z,39.37
2018-04-14T02:31:41.019Z,39.80
2018-04-14T02:34:08.578Z,41.50
2018-04-14T02:36:36.165Z,40.83
2018-04-14T02:39:03.728Z,39.43
2018-04-14T02:41:31.304Z,48.83
2018-04-14T02:43:58.881Z,48.07
2018-04-14T02:46:26.443Z,42.77
2018-04-14T02:48:54.028Z,44.43
2018-04-14T02:51:21.583Z,50.60
2018-04-14T02:53:49.924Z,46.43
2018-04-14T02:56:17.489Z,40.80
2018-04-14T02:58:45.827Z,47.93
2018-04-14T03:01:14.152Z,48.43
2018-04-14T03:03:41.728Z,46.40
2018-04-14T03:06:09.302Z,48.57
2018-04-14T03:08:36.881Z,46.27
2018-04-14T03:11:04.452Z,51.23
2018-04-14T03:13:32.031Z,53.77
2018-04-14T03:16:00.357Z,51.47
2018-04-14T03:18:28.695Z,46.40
2018-04-14T03:20:56.255Z,54.50
2018-04-14T03:23:23.822Z,55.77
2018-04-14T03:25:51.376Z,48.70
2018-04-14T03:28:19.715Z,53.17
2018-04-14T03:30:47.276Z,51.53
2018-04-14T03:33:14.854Z,47.40
2018-04-14T03:35:42.408Z,49.20
2018-04-14T03:38:10.004Z,50.90
2018-04-14T03:40:38.329Z,48.03
2018-04-14T03:43:06.643Z,51.50
2018-04-14T03:45:34.217Z,49.50
2018-04-14T03:48:01.776Z,52.80
2018-04-14T03:50:29.353Z,49.20
2018-04-14T03:52:56.916Z,50.70
2018-04-14T03:55:24.524Z,52.50
2018-04-14T03:57:52.082Z,50.93
2018-04-14T04:00:19.698Z,54.60
2018-04-14T04:02:48.004Z,55.07
2018-04-14T04:05:16.348Z,56.77
2018-04-14T04:07:43.911Z,58.90
2018-04-14T04:10:11.485Z,54.13
2018-04-14T04:12:39.044Z,69.47
2018-04-14T04:15:06.616Z,55.70
2018-04-14T04:17:34.181Z,60.93
2018-04-14T04:20:13.630Z,60.13
2018-04-14T04:22:52.947Z,63.70
2018-04-14T04:25:24.332Z,58.20
2018-04-14T04:27:52.648Z,62.30
2018-04-14T04:30:20.237Z,54.20
2018-04-14T04:32:47.796Z,56.50
2018-04-14T04:35:15.356Z,61.20
2018-04-14T04:37:42.928Z,56.03
2018-04-14T04:40:10.483Z,57.87
2018-04-14T04:42:38.058Z,60.20
2018-04-14T04:45:05.616Z,57.00
2018-04-14T04:47:33.991Z,54.40
2018-04-14T04:50:01.543Z,59.00
2018-04-14T04:52:29.116Z,59.67
2018-04-14T04:54:56.671Z,58.80
2018-04-14T04:57:24.242Z,54.93
2018-04-14T04:59:51.811Z,56.30
2018-04-14T05:02:19.391Z,56.37
2018-04-14T05:04:46.951Z,55.60
2018-04-14T05:07:14.531Z,49.87
2018-04-14T05:09:42.088Z,57.43
2018-04-14T05:12:09.659Z,54.63
2018-04-14T05:14:37.219Z,53.00
2018-04-14T05:17:04.787Z,55.07
2018-04-14T05:19:32.352Z,57.97
2018-04-14T05:21:59.924Z,51.17
2018-04-14T05:24:27.484Z,57.10
2018-04-14T05:26:55.836Z,55.00
2018-04-14T05:29:23.401Z,53.73
2018-04-14T05:31:50.983Z,57.80
2018-04-14T05:34:18.574Z,52.23
2018-04-14T05:36:46.169Z,59.43
2018-04-14T05:39:14.489Z,63.27
2018-04-14T05:41:42.048Z,59.97
2018-04-14T05:44:09.633Z,61.60
2018-04-14T05:46:37.185Z,54.80
2018-04-14T05:49:04.756Z,63.17
2018-04-14T05:51:32.318Z,61.63
2018-04-14T05:54:00.655Z,60.27
2018-04-14T05:56:28.979Z,54.20
2018-04-14T05:58:57.319Z,53.00
2018-04-14T06:01:24.876Z,36.30
2018-04-14T06:03:52.451Z,38.63
2018-04-14T06:06:20.004Z,38.27
2018-04-14T06:08:47.588Z,24.23
2018-04-14T06:11:15.139Z,24.63
2018-04-14T06:13:43.491Z,25.73
2018-04-14T06:16:11.055Z,22.63
2018-04-14T06:18:38.629Z,24.50
2018-04-14T06:21:06.198Z,22.67
2018-04-14T06:23:33.780Z,30.40
2018-04-14T06:26:01.340Z,18.70
2018-04-14T06:28:28.935Z,21.13
2018-04-14T06:30:56.483Z,19.40
2018-04-14T06:33:24.062Z,16.47
2018-04-14T06:35:52.379Z,15.67
2018-04-14T06:38:20.717Z,21.77
2018-04-14T06:40:48.292Z,22.17
2018-04-14T06:43:15.864Z,22.17
2018-04-14T06:45:43.423Z,19.73
2018-04-14T06:48:10.975Z,27.43
2018-04-14T06:50:38.548Z,27.83
2018-04-14T06:53:06.108Z,35.90
2018-04-14T06:55:34.449Z,32.97
2018-04-14T06:58:02.008Z,44.87
2018-04-14T07:00:29.582Z,44.00
2018-04-14T07:02:57.140Z,48.90
2018-04-14T07:05:24.721Z,51.00
2018-04-14T07:07:52.279Z,45.30
2018-04-14T07:10:19.859Z,47.30
2018-04-14T07:12:47.419Z,49.40
2018-04-14T07:15:15.004Z,48.40
2018-04-14T07:17:42.567Z,49.47
2018-04-14T07:20:10.140Z,49.47
2018-04-14T07:22:37.696Z,60.73
2018-04-14T07:25:05.272Z,53.27
2018-04-14T07:27:32.830Z,51.80
2018-04-14T07:30:01.172Z,52.03
2018-04-14T07:32:28.784Z,46.37
2018-04-14T07:34:57.170Z,48.70
2018-04-14T07:37:25.505Z,48.60
2018-04-14T07:39:53.100Z,58.43
2018-04-14T07:42:21.130Z,50.17
2018-04-14T07:44:49.488Z,50.33
2018-04-14T07:47:17.044Z,46.50
2018-04-14T07:49:44.620Z,44.33
2018-04-14T07:52:12.196Z,53.50
2018-04-14T07:54:39.762Z,50.40
2018-04-14T07:57:07.337Z,50.50
2018-04-14T07:59:35.034Z,53.33
2018-04-14T08:02:03.407Z,52.90
2018-04-14T08:04:31.000Z,48.63
2018-04-14T08:07:00.091Z,62.40
2018-04-14T08:09:27.691Z,55.10
2018-04-14T08:11:56.067Z,54.20
2018-04-14T08:14:23.630Z,63.00
2018-04-14T08:16:51.991Z,49.57
2018-04-14T08:19:19.580Z,49.67
2018-04-14T08:21:47.169Z,45.50
2018-04-14T08:24:14.736Z,49.87
2018-04-14T08:26:42.308Z,55.07
2018-04-14T08:29:09.895Z,48.80
2018-04-14T08:31:38.251Z,54.33
2018-04-14T08:34:06.575Z,63.47
2018-04-14T08:36:34.925Z,58.50
2018-04-14T08:39:02.476Z,51.70
2018-04-14T08:41:30.097Z,52.50
2018-04-14T08:43:57.659Z,55.60
2018-04-14T08:46:25.232Z,46.53
2018-04-14T08:48:52.855Z,55.60
2018-04-14T08:51:20.420Z,52.00
2018-04-14T08:53:47.983Z,48.87
2018-04-14T08:56:15.634Z,45.10
2018-04-14T08:58:43.369Z,51.57
2018-04-14T09:01:10.940Z,51.77
2018-04-14T09:03:38.523Z,56.90
2018-04-14T09:06:06.081Z,59.80
2018-04-14T09:08:33.693Z,58.73
2018-04-14T09:11:01.256Z,60.00
2018-04-14T09:13:29.124Z,60.37
2018-04-14T09:15:56.693Z,50.10
2018-04-14T09:18:24.267Z,57.40
2018-04-14T09:20:51.818Z,52.00
2018-04-14T09:23:19.395Z,42.53
2018-04-14T09:25:46.953Z,47.87
2018-04-14T09:28:14.627Z,47.27
2018-04-14T09:30:42.248Z,45.20
2018-04-14T09:33:09.880Z,47.77
2018-04-14T09:35:37.460Z,46.50
2018-04-14T09:38:05.093Z,53.43
2018-04-14T09:40:33.558Z,51.17
2018-04-14T09:43:01.923Z,52.27
2018-04-14T09:45:29.480Z,46.70
2018-04-14T09:47:57.052Z,42.10
2018-04-14T09:50:24.619Z,42.70
2018-04-14T09:52:52.232Z,47.90
2018-04-14T09:55:20.043Z,45.87
2018-04-14T09:57:48.399Z,46.60
2018-04-14T10:00:21.662Z,43.53
2018-04-14T10:02:49.516Z,40.20
2018-04-14T10:05:17.833Z,35.47
2018-04-14T10:07:45.426Z,30.40
2018-04-14T10:10:13.022Z,39.80
2018-04-14T10:12:41.369Z,36.23
2018-04-14T10:15:09.072Z,37.10
2018-04-14T10:17:36.738Z,35.47
2018-04-14T10:20:04.329Z,41.50
2018-04-14T10:22:31.934Z,38.47
2018-04-14T10:25:00.411Z,41.00
2018-04-14T10:27:28.030Z,45.50
2018-04-14T10:29:55.689Z,54.90
2018-04-14T10:32:23.341Z,52.03
2018-04-14T10:34:50.933Z,64.93
2018-04-14T10:37:18.575Z,61.93
2018-04-14T10:39:46.164Z,62.13
2018-04-14T10:42:14.606Z,73.50
2018-04-14T10:44:42.203Z,76.43
2018-04-14T10:47:10.544Z,85.23
2018-04-14T10:49:38.187Z,87.43
2018-04-14T10:52:06.596Z,91.80
2018-04-14T10:54:34.289Z,93.97
2018-04-14T10:57:01.932Z,105.30
2018-04-14T10:59:30.311Z,95.67
2018-04-14T11:01:58.740Z,107.63
2018-04-14T11:04:26.388Z,99.87
2018-04-14T11:06:54.817Z,111.20
2018-04-14T11:09:22.643Z,113.70
2018-04-14T11:11:51.008Z,109.80
2018-04-14T11:14:18.620Z,109.60
2018-04-14T11:16:47.028Z,113.73
2018-04-14T11:19:17.551Z,113.30
2018-04-14T11:21:45.253Z,107.77
2018-04-14T11:24:12.825Z,112.17
2018-04-14T11:26:41.056Z,97.47
2018-04-14T11:29:08.645Z,114.53
2018-04-14T11:31:36.227Z,101.07
2018-04-14T11:34:04.594Z,98.57
2018-04-14T11:36:40.308Z,94.43
2018-04-14T11:39:07.984Z,91.07
2018-04-14T11:41:35.557Z,95.20
2018-04-14T11:44:03.115Z,85.63
2018-04-14T11:46:31.449Z,77.27
2018-04-14T11:48:59.009Z,84.60
2018-04-14T11:51:26.592Z,81.30
2018-04-14T11:53:54.165Z,71.90
2018-04-14T11:56:21.735Z,81.73
2018-04-14T11:58:49.294Z,81.07
2018-04-14T12:01:16.871Z,76.60
2018-04-14T12:03:44.490Z,84.80
2018-04-14T12:06:12.088Z,78.53
2018-04-14T12:08:39.652Z,85.10
2018-04-14T12:11:07.236Z,86.93
2018-04-14T12:13:34.787Z,86.33
2018-04-14T12:16:03.129Z,75.77
2018-04-14T12:18:30.691Z,93.50
2018-04-14T12:20:58.276Z,87.43
2018-04-14T12:23:25.831Z,92.23
2018-04-14T12:25:53.411Z,77.33
2018-04-14T12:28:20.961Z,85.57
2018-04-14T12:30:48.532Z,94.43
2018-04-14T12:33:16.090Z,89.83
2018-04-14T12:35:43.664Z,89.67
2018-04-14T12:38:11.227Z,95.47
2018-04-14T12:40:39.573Z,82.13
2018-04-14T12:43:07.132Z,80.83
2018-04-14T12:45:34.683Z,88.80
2018-04-14T12:48:02.261Z,91.87
2018-04-14T12:50:29.819Z,99.60
2018-04-14T12:52:57.427Z,93.73
2018-04-14T12:55:24.991Z,90.17
2018-04-14T12:57:52.571Z,93.93
2018-04-14T13:00:20.132Z,94.87
2018-04-14T13:02:47.717Z,93.17
2018-04-14T13:05:15.279Z,95.73
2018-04-14T13:07:42.862Z,104.17
2018-04-14T13:10:10.421Z,102.87
2018-04-14T13:12:38.000Z,105.97
2018-04-14T13:15:05.556Z,104.70
2018-04-14T13:17:33.142Z,108.93
2018-04-14T13:20:02.515Z,102.80
2018-04-14T13:22:34.122Z,102.27
2018-04-14T13:25:02.601Z,116.50
2018-04-14T13:27:30.203Z,101.60
2018-04-14T13:29:57.809Z,95.60
2018-04-14T13:32:26.192Z,105.40
2018-04-14T13:34:54.548Z,98.60
2018-04-14T13:37:22.131Z,107.03
2018-04-14T13:39:49.719Z,109.47
2018-04-14T13:42:17.302Z,103.27
2018-04-14T13:44:44.862Z,106.70
2018-04-14T13:47:12.482Z,108.77
2018-04-14T13:49:40.821Z,109.10
2018-04-14T13:52:09.175Z,106.20
2018-04-14T13:54:36.927Z,109.47
2018-04-14T13:57:04.543Z,118.87
2018-04-14T13:59:32.144Z,106.20
2018-04-14T14:01:59.704Z,108.30
2018-04-14T14:04:27.290Z,122.23
2018-04-14T14:06:54.884Z,127.03
2018-04-14T14:09:23.231Z,121.90
2018-04-14T14:11:50.834Z,133.30
2018-04-14T14:14:18.471Z,125.67
2018-04-14T14:16:46.032Z,124.87
2018-04-14T14:19:13.620Z,123.17
2018-04-14T14:21:41.187Z,115.17
2018-04-14T14:24:09.535Z,123.83
2018-04-14T14:26:37.855Z,128.67
2018-04-14T14:29:05.429Z,135.33
2018-04-14T14:31:33.019Z,117.97
2018-04-14T14:34:00.609Z,126.67
2018-04-14T14:36:28.170Z,116.53
2018-04-14T14:38:55.752Z,120.27
2018-04-14T14:41:23.336Z,118.87
2018-04-14T14:43:50.915Z,119.67
2018-04-14T14:46:19.252Z,113.30
2018-04-14T14:48:46.856Z,117.13
2018-04-14T14:51:14.419Z,112.33
2018-04-14T14:53:41.992Z,100.73
2018-04-14T14:56:09.556Z,111.50
2018-04-14T14:58:37.891Z,98.33
2018-04-14T15:01:06.219Z,110.70
2018-04-14T15:03:33.780Z,86.07
2018-04-14T15:06:01.351Z,95.93
2018-04-14T15:08:28.912Z,101.00
2018-04-14T15:10:56.484Z,85.73
2018-04-14T15:13:24.035Z,93.23
2018-04-14T15:15:52.372Z,76.70
2018-04-14T15:18:19.924Z,88.53
2018-04-14T15:20:47.507Z,86.50
2018-04-14T15:23:15.055Z,91.97
2018-04-14T15:25:42.691Z,85.73
2018-04-14T15:28:10.272Z,75.43
2018-04-14T15:30:37.855Z,77.33
2018-04-14T15:33:06.175Z,78.60
2018-04-14T15:35:34.516Z,86.90
2018-04-14T15:38:02.069Z,81.30
2018-04-14T15:40:30.412Z,74.57
2018-04-14T15:42:57.972Z,69.23
2018-04-14T15:45:26.314Z,85.63
2018-04-14T15:47:53.875Z,73.10
2018-04-14T15:50:21.459Z,79.87
2018-04-14T15:52:49.017Z,72.70
2018-04-14T15:55:16.598Z,71.80
2018-04-14T15:57:44.159Z,77.23
2018-04-14T16:00:11.728Z,70.27
2018-04-14T16:02:39.287Z,64.30
2018-04-14T16:05:06.886Z,63.47
2018-04-14T16:07:34.448Z,62.73
2018-04-14T16:10:02.048Z,59.13
2018-04-14T16:12:29.604Z,56.60
2018-04-14T16:14:57.942Z,55.07
2018-04-14T16:17:26.283Z,50.33
2018-04-14T16:19:53.856Z,43.67
2018-04-14T16:22:21.501Z,48.10
2018-04-14T16:24:49.716Z,50.60
2018-04-14T16:27:17.404Z,46.90
2018-04-14T16:29:44.960Z,18.40
2018-04-14T16:32:12.532Z,16.83
2018-04-14T16:34:40.084Z,15.07
2018-04-14T16:37:07.664Z,15.13
2018-04-14T16:39:35.229Z,16.23
2018-04-14T16:42:02.798Z,15.80
2018-04-14T16:44:30.354Z,20.10
2018-04-14T16:46:57.932Z,16.57
2018-04-14T16:49:25.538Z,18.23
2018-04-14T16:51:53.078Z,13.00
2018-04-14T16:54:20.635Z,10.63
2018-04-14T16:56:48.254Z,10.30
2018-04-14T16:59:15.816Z,7.47
2018-04-14T17:01:43.395Z,6.63
2018-04-14T17:04:10.948Z,5.93
2018-04-14T17:06:38.527Z,5.13
2018-04-14T17:09:06.075Z,4.03
2018-04-14T17:11:33.649Z,3.37
2018-04-14T17:14:01.198Z,3.47
2018-04-14T17:16:29.538Z,3.37
2018-04-14T17:18:57.091Z,4.53
2018-04-14T17:21:24.663Z,2.97
2018-04-14T17:23:52.220Z,2.80
2018-04-14T17:26:19.773Z,4.77
2018-04-14T17:28:48.112Z,3.00
2018-04-14T17:31:15.660Z,4.23
2018-04-14T17:33:43.236Z,3.00
2018-04-14T17:36:10.785Z,3.27
2018-04-14T17:38:39.128Z,2.80
2018-04-14T17:41:06.676Z,3.07
2018-04-14T17:43:34.244Z,3.20
2018-04-14T17:46:01.800Z,3.40
2018-04-14T17:48:29.369Z,5.60
2018-04-14T17:50:57.689Z,3.47
2018-04-14T17:53:25.474Z,3.40
2018-04-14T17:55:53.024Z,3.63
2018-04-14T17:58:20.597Z,4.23
2018-04-14T18:00:48.148Z,4.20
2018-04-14T18:03:15.715Z,5.80
2018-04-14T18:05:44.038Z,6.97
2018-04-14T18:08:11.608Z,3.90
2018-04-14T18:10:39.156Z,7.70
2018-04-14T18:13:07.493Z,5.53
2018-04-14T18:15:35.071Z,5.13
2018-04-14T18:18:02.791Z,5.27
2018-04-14T18:20:31.108Z,6.13
2018-04-14T18:22:58.682Z,4.53
2018-04-14T18:25:26.242Z,5.17
2018-04-14T18:27:53.819Z,4.67
2018-04-14T18:30:21.489Z,4.13
2018-04-14T18:32:49.067Z,3.07
2018-04-14T18:35:16.612Z,5.20
2018-04-14T18:37:44.187Z,3.60
2018-04-14T18:40:12.524Z,9.03
2018-04-14T18:42:40.077Z,5.67
2018-04-14T18:45:07.656Z,8.97
2018-04-14T18:47:35.208Z,7.93
2018-04-14T18:50:02.787Z,7.17
2018-04-14T18:52:30.340Z,5.00
2018-04-14T18:54:57.918Z,4.53
2018-04-14T18:57:25.464Z,5.83
2018-04-14T18:59:53.799Z,4.57
2018-04-14T19:02:21.363Z,3.93
2018-04-14T19:04:48.931Z,5.23
2018-04-14T19:07:16.480Z,4.60
2018-04-14T19:09:44.052Z,4.10
2018-04-14T19:12:12.377Z,5.27
2018-04-14T19:14:39.945Z,4.30
2018-04-14T19:17:07.487Z,5.37
2018-04-14T19:19:35.815Z,4.40
2018-04-14T19:22:03.367Z,8.40
2018-04-14T19:24:30.962Z,6.27
2018-04-14T19:26:58.572Z,6.30
2018-04-14T19:29:26.131Z,5.63
2018-04-14T19:31:53.700Z,5.67
2018-04-14T19:34:21.426Z,5.50
2018-04-14T19:36:49.242Z,4.93
2018-04-14T19:39:23.500Z,6.90
2018-04-14T19:41:51.702Z,6.23
2018-04-14T19:44:20.243Z,10.63
2018-04-14T19:46:48.643Z,6.23
2018-04-14T19:49:16.329Z,5.20
2018-04-14T19:51:44.796Z,6.37
2018-04-14T19:54:12.529Z,6.00
2018-04-14T19:56:40.342Z,5.43
2018-04-14T19:59:08.030Z,6.43
2018-04-14T20:01:35.666Z,4.97
2018-04-14T20:04:03.216Z,5.20
2018-04-14T20:06:31.554Z,3.73
2018-04-14T20:08:59.280Z,6.43
2018-04-14T20:11:27.783Z,6.00
2018-04-14T20:13:55.442Z,6.10
2018-04-14T20:16:23.790Z,8.60
2018-04-14T20:18:51.373Z,8.80
2018-04-14T20:21:18.931Z,7.60
2018-04-14T20:23:46.479Z,7.00
2018-04-14T20:26:14.039Z,7.67
2018-04-14T20:28:47.448Z,5.83
2018-04-14T20:31:15.020Z,6.20
2018-04-14T20:33:43.333Z,9.30
2018-04-14T20:36:10.926Z,8.77
2018-04-14T20:38:38.476Z,5.23
2018-04-14T20:41:06.075Z,11.10
2018-04-14T20:43:33.620Z,9.93
2018-04-14T20:46:01.169Z,8.43
2018-04-14T20:48:29.521Z,7.67
2018-04-14T20:50:57.067Z,9.23
2018-04-14T20:53:24.693Z,8.90
2018-04-14T20:55:53.039Z,8.40
2018-04-14T20:58:20.608Z,8.90
2018-04-14T21:00:48.152Z,9.37
2018-04-14T21:03:15.711Z,9.57
2018-04-14T21:05:44.018Z,5.87
2018-04-14T21:08:11.580Z,7.47
2018-04-14T21:10:39.127Z,8.53
2018-04-14T21:13:07.468Z,10.00
2018-04-14T21:15:35.012Z,10.23
2018-04-14T21:18:02.577Z,8.33
2018-04-14T21:20:30.125Z,4.87
2018-04-14T21:22:57.688Z,8.80
2018-04-14T21:25:25.267Z,10.43
2018-04-14T21:27:58.707Z,7.53
2018-04-14T21:30:27.512Z,12.47
2018-04-14T21:32:55.081Z,10.20
2018-04-14T21:35:22.631Z,7.27
2018-04-14T21:37:50.968Z,8.50
2018-04-14T21:40:18.704Z,9.90
2018-04-14T21:42:46.275Z,7.70
2018-04-14T21:45:14.599Z,9.43
2018-04-14T21:47:42.670Z,9.80
2018-04-14T21:50:10.212Z,5.27
2018-04-14T21:52:38.548Z,5.93
2018-04-14T21:55:06.089Z,7.70
2018-04-14T21:57:34.419Z,8.10
2018-04-14T22:00:01.997Z,8.07
2018-04-14T22:02:29.543Z,8.90
2018-04-14T22:04:57.174Z,5.20
2018-04-14T22:07:24.680Z,10.83
2018-04-14T22:09:52.249Z,9.37
2018-04-14T22:12:19.797Z,11.90
2018-04-14T22:14:48.132Z,10.67
2018-04-14T22:17:15.684Z,7.00
2018-04-14T22:19:43.253Z,5.23
2018-04-14T22:22:10.822Z,5.63
2018-04-14T22:24:38.392Z,6.40
2018-04-14T22:27:05.942Z,7.17
2018-04-14T22:29:38.222Z,5.53
2018-04-14T22:32:06.375Z,6.13
2018-04-14T22:34:38.851Z,6.20
2018-04-14T22:37:06.724Z,66.23
2018-04-14T22:39:38.011Z,4.77
2018-04-14T22:42:06.374Z,7.10
2018-04-14T22:44:33.942Z,15.53
2018-04-14T22:47:01.493Z,11.00
2018-04-14T22:49:29.066Z,7.50
2018-04-14T22:51:56.654Z,6.73
2018-04-14T22:54:24.236Z,12.23
2018-04-14T22:56:51.778Z,8.13
2018-04-14T22:59:19.358Z,10.07
2018-04-14T23:01:46.955Z,6.37
2018-04-14T23:04:14.520Z,7.57
2018-04-14T23:06:43.068Z,10.60
2018-04-14T23:09:16.921Z,7.20
2018-04-14T23:11:50.089Z,12.57
2018-04-14T23:14:18.745Z,10.30
2018-04-14T23:16:51.426Z,13.33
2018-04-14T23:19:19.751Z,8.30
2018-04-14T23:21:47.272Z,45.67
2018-04-14T23:24:14.855Z,9.40
2018-04-14T23:26:42.408Z,10.37
2018-04-14T23:29:09.985Z,12.20
2018-04-14T23:31:37.559Z,8.60
2018-04-14T23:34:05.112Z,12.50
2018-04-14T23:36:33.743Z,11.80
2018-04-14T23:39:01.336Z,12.40
2018-04-14T23:41:28.908Z,6.30
2018-04-14T23:43:56.465Z,9.60
2018-04-14T23:46:24.041Z,6.90
2018-04-14T23:48:51.583Z,5.87
2018-04-14T23:51:19.149Z,5.93
2018-04-14T23:53:46.708Z,7.50
2018-04-14T23:56:14.271Z,8.93
2018-04-14T23:58:42.588Z,9.93
